createdAt,value
2023-04-25T00:00:02.117Z,5.47
2023-04-25T00:02:50.039Z,6.20
2023-04-25T00:05:38.342Z,8.70
2023-04-25T00:08:25.033Z,7.87
2023-04-25T00:11:11.117Z,8.33
2023-04-25T00:13:58.285Z,9.17
2023-04-25T00:16:45.165Z,7.90
2023-04-25T00:19:33.794Z,6.07
2023-04-25T00:22:20.472Z,6.33
2023-04-25T00:25:07.430Z,6.27
2023-04-25T00:27:53.699Z,6.43
2023-04-25T00:30:40.515Z,6.43
2023-04-25T00:33:26.679Z,7.53
2023-04-25T00:36:14.741Z,7.20
2023-04-25T00:39:00.851Z,7.43
2023-04-25T00:41:47.688Z,7.87
2023-04-25T00:44:34.507Z,7.67
2023-04-25T00:47:21.470Z,7.43
2023-04-25T00:50:08.727Z,7.63
2023-04-25T00:52:56.477Z,7.47
2023-04-25T00:55:42.889Z,7.73
2023-04-25T00:58:29.084Z,7.97
2023-04-25T01:01:15.338Z,7.20
2023-04-25T01:04:03.520Z,8.33
2023-04-25T01:06:50.176Z,10.60
2023-04-25T01:09:38.028Z,8.03
2023-04-25T01:12:24.561Z,6.97
2023-04-25T01:15:11.426Z,6.27
2023-04-25T01:17:58.290Z,6.80
2023-04-25T01:20:45.528Z,6.93
2023-04-25T01:23:34.351Z,6.20
2023-04-25T01:26:22.283Z,5.73
2023-04-25T01:29:09.539Z,6.40
2023-04-25T01:31:56.033Z,6.37
2023-04-25T01:34:42.242Z,5.97
2023-04-25T01:37:29.011Z,5.80
2023-04-25T01:40:16.406Z,6.57
2023-04-25T01:43:03.048Z,7.37
2023-04-25T01:45:50.275Z,10.13
2023-04-25T01:48:36.452Z,7.87
2023-04-25T01:51:22.609Z,7.40
2023-04-25T01:54:09.384Z,7.13
2023-04-25T01:56:59.246Z,7.43
2023-04-25T01:59:45.688Z,6.70
2023-04-25T02:02:32.303Z,5.97
2023-04-25T02:05:19.154Z,5.87
2023-04-25T02:08:05.963Z,5.57
2023-04-25T02:10:52.586Z,6.43
2023-04-25T02:13:40.245Z,5.60
2023-04-25T02:16:26.584Z,5.70
2023-04-25T02:19:12.987Z,5.97
2023-04-25T02:21:59.203Z,5.20
2023-04-25T02:24:45.759Z,5.47
2023-04-25T02:27:32.457Z,5.93
2023-04-25T02:30:20.589Z,6.00
2023-04-25T02:33:07.107Z,6.00
2023-04-25T02:35:53.721Z,6.43
2023-04-25T02:38:40.256Z,5.53
2023-04-25T02:41:26.681Z,5.87
2023-04-25T02:44:13.546Z,6.80
2023-04-25T02:47:01.113Z,5.77
2023-04-25T02:49:47.631Z,6.30
2023-04-25T02:52:34.650Z,5.47
2023-04-25T02:55:21.691Z,6.10
2023-04-25T02:58:09.063Z,7.17
2023-04-25T03:00:55.826Z,8.13
2023-04-25T03:03:43.496Z,7.30
2023-04-25T03:06:29.987Z,5.77
2023-04-25T03:09:16.414Z,5.77
2023-04-25T03:12:02.641Z,5.87
2023-04-25T03:14:49.614Z,6.20
2023-04-25T03:17:36.338Z,6.23
2023-04-25T03:20:24.580Z,6.13
2023-04-25T03:23:11.364Z,5.40
2023-04-25T03:25:58.036Z,5.83
2023-04-25T03:28:44.835Z,5.90
2023-04-25T03:31:31.691Z,6.40
2023-04-25T03:34:18.445Z,6.00
2023-04-25T03:37:06.477Z,6.20
2023-04-25T03:39:53.074Z,6.07
2023-04-25T03:42:39.737Z,5.87
2023-04-25T03:45:26.061Z,6.77
2023-04-25T03:48:13.680Z,8.00
2023-04-25T03:51:10.026Z,14.77
2023-04-25T03:53:58.221Z,8.17
2023-04-25T03:56:44.612Z,6.87
2023-04-25T03:59:31.501Z,6.47
2023-04-25T04:02:18.177Z,6.80
2023-04-25T04:05:04.970Z,6.63
2023-04-25T04:07:51.381Z,6.70
2023-04-25T04:10:39.560Z,6.67
2023-04-25T04:13:26.246Z,6.97
2023-04-25T04:16:13.263Z,6.67
2023-04-25T04:18:59.804Z,6.60
2023-04-25T04:21:46.291Z,9.23
2023-04-25T04:24:32.428Z,7.87
2023-04-25T04:27:21.289Z,6.97
2023-04-25T04:30:08.580Z,8.20
2023-04-25T04:32:55.154Z,8.87
2023-04-25T04:35:42.625Z,7.43
2023-04-25T04:38:29.054Z,9.30
2023-04-25T04:41:15.444Z,8.57
2023-04-25T04:44:04.152Z,8.13
2023-04-25T04:46:51.755Z,8.57
2023-04-25T04:49:38.421Z,8.90
2023-04-25T04:52:24.954Z,9.07
2023-04-25T04:55:11.816Z,9.30
2023-04-25T04:57:58.680Z,9.77
2023-04-25T05:00:47.526Z,10.20
2023-04-25T05:03:33.974Z,10.10
2023-04-25T05:06:21.666Z,9.20
2023-04-25T05:09:08.055Z,10.20
2023-04-25T05:11:54.845Z,9.13
2023-04-25T05:14:41.284Z,10.27
2023-04-25T05:17:29.262Z,10.43
2023-04-25T05:20:16.329Z,11.10
2023-04-25T05:23:02.838Z,10.43
2023-04-25T05:25:49.597Z,9.30
2023-04-25T05:28:36.069Z,9.13
2023-04-25T05:31:22.341Z,7.30
2023-04-25T05:34:10.506Z,6.67
2023-04-25T05:36:56.861Z,5.50
2023-04-25T05:39:43.227Z,6.23
2023-04-25T05:42:29.818Z,6.20
2023-04-25T05:45:16.221Z,8.60
2023-04-25T05:48:02.792Z,5.97
2023-04-25T05:50:50.546Z,6.13
2023-04-25T05:53:36.843Z,6.17
2023-04-25T05:56:23.350Z,5.90
2023-04-25T05:59:09.554Z,6.70
2023-04-25T06:01:55.883Z,6.50
2023-04-25T06:04:42.577Z,6.47
2023-04-25T06:07:30.967Z,6.57
2023-04-25T06:10:17.020Z,6.83
2023-04-25T06:13:03.838Z,5.17
2023-04-25T06:15:50.462Z,5.57
2023-04-25T06:18:37.215Z,5.57
2023-04-25T06:21:23.688Z,5.47
2023-04-25T06:24:11.382Z,5.57
2023-04-25T06:26:57.646Z,5.20
2023-04-25T06:29:44.220Z,5.97
2023-04-25T06:32:31.217Z,4.00
2023-04-25T06:35:17.824Z,4.07
2023-04-25T06:38:04.492Z,4.97
2023-04-25T06:40:52.373Z,4.83
2023-04-25T06:43:38.700Z,3.90
2023-04-25T06:46:24.828Z,3.70
2023-04-25T06:49:11.384Z,3.47
2023-04-25T06:51:57.632Z,3.80
2023-04-25T06:54:47.570Z,3.17
2023-04-25T06:57:35.558Z,3.53
2023-04-25T07:00:22.405Z,3.53
2023-04-25T07:03:08.518Z,3.13
2023-04-25T07:05:56.086Z,3.60
2023-04-25T07:08:42.488Z,3.40
2023-04-25T07:11:28.889Z,3.57
2023-04-25T07:14:17.464Z,3.87
2023-04-25T07:17:03.799Z,3.47
2023-04-25T07:19:50.940Z,3.77
2023-04-25T07:22:38.310Z,3.70
2023-04-25T07:25:24.939Z,4.37
2023-04-25T07:28:11.654Z,4.20
2023-04-25T07:30:59.383Z,4.60
2023-04-25T07:33:45.694Z,3.40
2023-04-25T07:36:31.956Z,3.77
2023-04-25T07:39:18.199Z,3.70
2023-04-25T07:42:05.362Z,3.83
2023-04-25T07:44:52.766Z,3.50
2023-04-25T07:47:40.786Z,3.33
2023-04-25T07:50:27.388Z,4.13
2023-04-25T07:53:14.142Z,4.10
2023-04-25T07:56:00.325Z,3.40
2023-04-25T07:58:46.885Z,3.03
2023-04-25T08:01:33.130Z,3.00
2023-04-25T08:04:20.923Z,3.83
2023-04-25T08:07:07.859Z,3.37
2023-04-25T08:09:54.483Z,3.33
2023-04-25T08:12:41.208Z,3.80
2023-04-25T08:15:27.524Z,3.00
2023-04-25T08:18:16.939Z,3.03
2023-04-25T08:21:05.382Z,2.83
2023-04-25T08:23:52.029Z,3.03
2023-04-25T08:26:40.535Z,3.10
2023-04-25T08:29:27.304Z,2.67
2023-04-25T08:32:13.410Z,2.50
2023-04-25T08:34:59.959Z,3.00
2023-04-25T08:37:47.869Z,2.80
2023-04-25T08:40:37.062Z,1.73
2023-04-25T08:43:23.420Z,1.50
2023-04-25T08:46:10.390Z,1.50
2023-04-25T08:48:59.717Z,1.60
2023-04-25T08:51:47.744Z,2.00
2023-04-25T08:54:38.996Z,1.70
2023-04-25T08:57:27.644Z,1.83
2023-04-25T09:00:15.327Z,1.60
2023-04-25T09:03:02.053Z,1.83
2023-04-25T09:05:48.560Z,1.73
2023-04-25T09:08:35.122Z,1.83
2023-04-25T09:11:23.677Z,1.90
2023-04-25T09:14:14.344Z,1.70
2023-04-25T09:17:01.456Z,1.97
2023-04-25T09:19:48.020Z,2.10
2023-04-25T09:22:34.669Z,1.90
2023-04-25T09:25:20.984Z,1.67
2023-04-25T09:28:09.152Z,2.00
2023-04-25T09:30:57.758Z,1.73
2023-04-25T09:33:44.230Z,1.60
2023-04-25T09:36:31.812Z,1.50
2023-04-25T09:39:20.526Z,1.80
2023-04-25T09:42:07.374Z,1.50
2023-04-25T09:44:55.495Z,1.60
2023-04-25T09:47:42.299Z,1.40
2023-04-25T09:50:28.712Z,1.50
2023-04-25T09:53:15.163Z,1.63
2023-04-25T09:56:02.457Z,1.83
2023-04-25T09:58:49.283Z,1.70
2023-04-25T10:01:37.006Z,1.60
2023-04-25T10:04:27.320Z,1.57
2023-04-25T10:07:15.554Z,1.67
2023-04-25T10:10:03.485Z,1.60
2023-04-25T10:12:49.867Z,1.87
2023-04-25T10:15:39.919Z,2.30
2023-04-25T10:18:28.992Z,4.27
2023-04-25T10:21:17.274Z,4.07
2023-04-25T10:24:04.596Z,2.23
2023-04-25T10:26:52.314Z,2.30
2023-04-25T10:29:38.770Z,1.70
2023-04-25T10:32:26.007Z,1.60
2023-04-25T10:35:14.841Z,1.83
2023-04-25T10:38:02.361Z,1.90
2023-04-25T10:41:03.756Z,5.30
2023-04-25T10:43:51.753Z,2.73
2023-04-25T10:46:39.512Z,3.03
2023-04-25T10:49:33.172Z,2.00
2023-04-25T10:52:26.492Z,3.87
2023-04-25T10:55:13.205Z,2.97
2023-04-25T10:57:59.757Z,3.57
2023-04-25T11:00:56.964Z,2.50
2023-04-25T11:03:44.996Z,3.27
2023-04-25T11:06:33.532Z,3.10
2023-04-25T11:09:21.308Z,3.17
2023-04-25T11:12:09.318Z,2.63
2023-04-25T11:15:02.062Z,2.67
2023-04-25T11:17:48.559Z,2.80
2023-04-25T11:20:35.047Z,2.20
2023-04-25T11:23:21.670Z,3.00
2023-04-25T11:26:09.446Z,4.13
2023-04-25T11:28:59.345Z,4.63
2023-04-25T11:31:46.426Z,4.30
2023-04-25T11:34:34.272Z,4.00
2023-04-25T11:37:21.165Z,3.13
2023-04-25T11:40:09.943Z,3.13
2023-04-25T11:42:57.572Z,2.53
2023-04-25T11:45:48.060Z,2.50
2023-04-25T11:48:38.773Z,5.73
2023-04-25T11:51:25.206Z,2.40
2023-04-25T11:54:11.598Z,2.23
2023-04-25T11:56:58.804Z,2.00
2023-04-25T11:59:46.412Z,1.80
2023-04-25T12:02:32.809Z,1.30
2023-04-25T12:05:31.183Z,1.97
2023-04-25T12:08:18.535Z,1.87
2023-04-25T12:11:05.209Z,1.70
2023-04-25T12:13:54.362Z,1.90
2023-04-25T12:16:46.088Z,1.80
2023-04-25T12:19:36.342Z,1.90
2023-04-25T12:22:23.634Z,1.77
2023-04-25T12:25:10.444Z,2.07
2023-04-25T12:27:57.134Z,2.50
2023-04-25T12:31:00.080Z,2.00
2023-04-25T12:33:48.937Z,2.83
2023-04-25T12:36:35.500Z,2.50
2023-04-25T12:39:23.105Z,2.40
2023-04-25T12:42:12.609Z,2.00
2023-04-25T12:44:59.365Z,2.40
2023-04-25T12:47:46.150Z,2.20
2023-04-25T12:50:34.115Z,2.43
2023-04-25T12:53:21.541Z,2.20
2023-04-25T12:56:08.683Z,2.47
2023-04-25T12:58:55.175Z,2.50
2023-04-25T13:01:41.667Z,2.30
2023-04-25T13:04:28.784Z,2.70
2023-04-25T13:07:17.030Z,3.10
2023-04-25T13:10:03.915Z,3.27
2023-04-25T13:12:50.346Z,3.13
2023-04-25T13:15:37.526Z,4.37
2023-04-25T13:18:27.342Z,5.67
2023-04-25T13:21:13.609Z,6.57
2023-04-25T13:24:01.214Z,3.50
2023-04-25T13:26:47.696Z,2.93
2023-04-25T13:29:35.943Z,3.20
2023-04-25T13:32:22.418Z,3.07
2023-04-25T13:35:10.876Z,3.93
2023-04-25T13:37:57.903Z,3.23
2023-04-25T13:40:46.648Z,2.47
2023-04-25T13:43:35.025Z,2.83
2023-04-25T13:46:40.673Z,3.20
2023-04-25T13:49:27.930Z,3.77
2023-04-25T13:52:14.281Z,3.67
2023-04-25T13:55:00.903Z,3.10
2023-04-25T13:57:48.666Z,4.20
2023-04-25T14:00:36.002Z,2.97
2023-04-25T14:03:22.622Z,2.80
2023-04-25T14:06:09.654Z,2.27
2023-04-25T14:08:56.205Z,2.30
2023-04-25T14:11:42.584Z,2.63
2023-04-25T14:14:30.655Z,2.10
2023-04-25T14:17:17.109Z,2.80
2023-04-25T14:20:03.424Z,3.63
2023-04-25T14:22:49.889Z,2.60
2023-04-25T14:25:37.287Z,3.03
2023-04-25T14:28:23.440Z,4.17
2023-04-25T14:31:11.755Z,3.80
2023-04-25T14:33:59.662Z,3.30
2023-04-25T14:36:46.377Z,2.90
2023-04-25T14:39:32.480Z,3.77
2023-04-25T14:42:18.904Z,3.17
2023-04-25T14:45:05.950Z,1.97
2023-04-25T14:47:54.239Z,5.93
2023-04-25T14:50:40.682Z,2.37
2023-04-25T14:53:27.833Z,1.97
2023-04-25T14:56:14.159Z,1.30
2023-04-25T14:59:00.652Z,1.80
2023-04-25T15:01:47.224Z,12.17
2023-04-25T15:04:35.400Z,6.40
2023-04-25T15:07:22.424Z,2.10
2023-04-25T15:10:14.485Z,7.87
2023-04-25T15:13:00.928Z,1.93
2023-04-25T15:15:52.213Z,1.90
2023-04-25T15:18:38.822Z,1.80
2023-04-25T15:21:27.548Z,2.30
2023-04-25T15:24:16.181Z,2.23
2023-04-25T15:27:03.729Z,2.57
2023-04-25T15:29:49.789Z,3.13
2023-04-25T15:32:36.952Z,2.40
2023-04-25T15:35:23.491Z,2.70
2023-04-25T15:38:12.362Z,2.70
2023-04-25T15:40:58.676Z,3.10
2023-04-25T15:43:45.424Z,3.27
2023-04-25T15:46:32.348Z,4.50
2023-04-25T15:49:19.496Z,3.60
2023-04-25T15:52:08.292Z,4.70
2023-04-25T15:54:56.359Z,3.93
2023-04-25T15:57:42.673Z,3.60
2023-04-25T16:00:29.616Z,3.33
2023-04-25T16:03:16.227Z,2.90
2023-04-25T16:06:03.280Z,4.00
2023-04-25T16:08:49.894Z,4.33
2023-04-25T16:11:37.569Z,4.37
2023-04-25T16:14:24.436Z,3.97
2023-04-25T16:17:11.272Z,2.70
2023-04-25T16:19:59.333Z,2.53
2023-04-25T16:22:45.952Z,2.10
2023-04-25T16:25:32.438Z,4.80
2023-04-25T16:28:20.603Z,4.40
2023-04-25T16:31:07.085Z,4.10
2023-04-25T16:33:53.818Z,2.50
2023-04-25T16:40:35.362Z,1.90
2023-04-25T16:43:23.201Z,2.90
2023-04-25T16:46:09.591Z,3.00
2023-04-25T16:48:58.695Z,2.60
2023-04-25T16:51:46.410Z,3.00
2023-04-25T16:54:32.742Z,5.13
2023-04-25T16:57:18.843Z,4.43
2023-04-25T17:00:10.696Z,4.97
2023-04-25T17:02:57.115Z,4.63
2023-04-25T17:05:43.438Z,5.53
2023-04-25T17:08:29.700Z,6.60
2023-04-25T17:11:16.343Z,7.70
2023-04-25T17:14:02.710Z,6.77
2023-04-25T17:16:50.940Z,7.90
2023-04-25T17:19:37.719Z,7.77
2023-04-25T17:22:25.530Z,9.50
2023-04-25T17:25:11.927Z,10.47
2023-04-25T17:27:58.029Z,9.30
2023-04-25T17:30:45.647Z,7.07
2023-04-25T17:33:33.580Z,9.27
2023-04-25T17:36:20.027Z,9.23
2023-04-25T17:39:07.686Z,53.43
2023-04-25T17:41:54.033Z,26.80
2023-04-25T17:44:40.493Z,24.00
2023-04-25T17:47:27.282Z,7.77
2023-04-25T17:50:16.790Z,4.03
2023-04-25T17:53:04.028Z,3.70
2023-04-25T17:55:50.690Z,3.70
2023-04-25T17:58:37.012Z,4.93
2023-04-25T18:01:23.565Z,5.90
2023-04-25T18:04:10.333Z,6.40
2023-04-25T18:06:59.775Z,7.07
2023-04-25T18:09:46.083Z,6.57
2023-04-25T18:12:33.417Z,6.40
2023-04-25T18:15:22.085Z,7.93
2023-04-25T18:18:15.249Z,8.47
2023-04-25T18:21:03.988Z,8.87
2023-04-25T18:23:52.061Z,7.80
2023-04-25T18:26:38.468Z,7.20
2023-04-25T18:29:32.992Z,8.17
2023-04-25T18:32:20.468Z,7.70
2023-04-25T18:35:10.154Z,7.10
2023-04-25T18:37:56.516Z,8.03
2023-04-25T18:40:56.440Z,9.93
2023-04-25T18:43:46.759Z,9.33
2023-04-25T18:46:34.088Z,7.83
2023-04-25T18:49:20.932Z,7.63
2023-04-25T18:52:10.547Z,8.47
2023-04-25T18:54:57.000Z,11.80
2023-04-25T18:57:44.785Z,11.23
2023-04-25T19:00:31.232Z,10.60
2023-04-25T19:03:18.034Z,11.00
2023-04-25T19:06:05.347Z,11.10
2023-04-25T19:08:52.800Z,11.03
2023-04-25T19:11:39.953Z,7.77
2023-04-25T19:14:28.947Z,8.60
2023-04-25T19:17:15.570Z,5.57
2023-04-25T19:20:01.780Z,4.30
2023-04-25T19:22:49.085Z,3.23
2023-04-25T19:25:35.345Z,5.13
2023-04-25T19:28:21.634Z,6.67
2023-04-25T19:31:09.928Z,7.53
2023-04-25T19:33:56.765Z,6.40
2023-04-25T19:37:44.783Z,5.37
2023-04-25T19:40:32.073Z,4.87
2023-04-25T19:43:18.729Z,5.00
2023-04-25T19:49:07.058Z,5.30
2023-04-25T19:51:53.796Z,3.83
2023-04-25T19:54:41.290Z,3.03
2023-04-25T19:57:32.083Z,5.17
2023-04-25T20:00:20.107Z,5.17
2023-04-25T20:03:07.223Z,10.53
2023-04-25T20:05:54.712Z,10.77
2023-04-25T20:08:41.421Z,8.37
2023-04-25T20:11:29.261Z,8.03
2023-04-25T20:14:15.412Z,5.10
2023-04-25T20:17:01.669Z,4.23
2023-04-25T20:19:48.240Z,3.97
2023-04-25T20:22:38.780Z,3.07
2023-04-25T20:25:25.427Z,3.80
2023-04-25T20:28:12.309Z,4.00
2023-04-25T20:30:58.488Z,4.20
2023-04-25T20:33:44.903Z,4.30
2023-04-25T20:36:32.215Z,4.20
2023-04-25T20:39:21.708Z,3.40
2023-04-25T20:42:08.568Z,3.20
2023-04-25T20:44:54.744Z,3.10
2023-04-25T20:47:42.784Z,2.90
2023-04-25T20:50:29.450Z,7.27
2023-04-25T20:53:15.699Z,8.87
2023-04-25T20:56:04.560Z,10.67
2023-04-25T20:58:51.921Z,7.00
2023-04-25T21:01:38.793Z,6.73
2023-04-25T21:04:25.657Z,4.37
2023-04-25T21:07:13.232Z,4.20
2023-04-25T21:09:59.614Z,5.43
2023-04-25T21:12:49.364Z,15.83
2023-04-25T21:15:35.882Z,6.80
2023-04-25T21:18:22.410Z,5.10
2023-04-25T21:21:08.827Z,5.13
2023-04-25T21:23:55.472Z,4.97
2023-04-25T21:26:41.916Z,3.90
2023-04-25T21:29:29.650Z,4.00
2023-04-25T21:32:20.902Z,3.30
2023-04-25T21:35:07.541Z,4.30
2023-04-25T21:37:54.178Z,5.00
2023-04-25T21:40:40.974Z,5.63
2023-04-25T21:43:27.778Z,5.97
2023-04-25T21:46:23.298Z,3.57
2023-04-25T21:49:10.078Z,4.27
2023-04-25T21:51:56.407Z,3.87
2023-04-25T21:54:43.081Z,6.70
2023-04-25T21:57:29.515Z,10.53
2023-04-25T22:00:22.117Z,5.33
2023-04-25T22:03:10.218Z,5.07
2023-04-25T22:05:56.959Z,4.13
2023-04-25T22:08:43.785Z,3.30
2023-04-25T22:11:30.161Z,4.77
2023-04-25T22:14:16.428Z,5.10
2023-04-25T22:17:02.979Z,3.63
2023-04-25T22:19:52.151Z,3.60
2023-04-25T22:22:39.838Z,3.10
2023-04-25T22:25:26.572Z,3.80
2023-04-25T22:28:13.358Z,3.33
2023-04-25T22:30:59.845Z,3.70
2023-04-25T22:33:47.380Z,3.07
2023-04-25T22:36:35.424Z,3.10
2023-04-25T22:39:24.635Z,3.40
2023-04-25T22:42:10.924Z,3.23
2023-04-25T22:44:57.392Z,4.13
2023-04-25T22:47:43.941Z,4.40
2023-04-25T22:50:31.083Z,4.50
2023-04-25T22:53:18.850Z,4.57
2023-04-25T22:56:05.814Z,3.40
2023-04-25T22:58:52.299Z,2.80
2023-04-25T23:01:39.293Z,3.10
2023-04-25T23:04:25.868Z,3.10
2023-04-25T23:07:13.715Z,4.33
2023-04-25T23:10:01.591Z,4.33
2023-04-25T23:12:48.747Z,4.03
2023-04-25T23:15:35.301Z,3.20
2023-04-25T23:18:21.673Z,7.80
2023-04-25T23:21:09.030Z,9.93
2023-04-25T23:23:55.870Z,5.73
2023-04-25T23:26:43.886Z,5.50
2023-04-25T23:29:30.493Z,5.10
2023-04-25T23:32:16.923Z,11.23
2023-04-25T23:35:04.795Z,5.70
2023-04-25T23:37:51.366Z,4.10
2023-04-25T23:40:37.839Z,3.83
2023-04-25T23:43:25.633Z,3.10
2023-04-25T23:46:12.656Z,2.30
2023-04-25T23:48:59.358Z,2.83
2023-04-25T23:51:46.481Z,4.20
2023-04-25T23:54:32.692Z,4.40
2023-04-25T23:57:19.359Z,3.93
